createdAt,value
2023-01-03T00:00:28.097Z,1.25
2023-01-03T00:05:36.451Z,0.50
2023-01-03T00:10:39.554Z,1.50
2023-01-03T00:15:42.749Z,2.50
2023-01-03T00:20:46.871Z,3.25
2023-01-03T00:25:49.622Z,1.25
2023-01-03T00:30:52.851Z,0.75
2023-01-03T00:35:57.007Z,1.00
2023-01-03T00:41:05.916Z,1.00
2023-01-03T00:46:09.361Z,1.50
2023-01-03T00:51:15.261Z,0.75
2023-01-03T00:56:20.222Z,0.75
2023-01-03T01:01:25.244Z,1.00
2023-01-03T01:06:31.329Z,0.75
2023-01-03T01:11:34.517Z,0.25
2023-01-03T01:16:37.305Z,1.25
2023-01-03T01:21:41.646Z,0.50
2023-01-03T01:26:44.631Z,1.00
2023-01-03T01:31:48.485Z,1.00
2023-01-03T01:36:52.819Z,0.50
2023-01-03T01:42:30.995Z,1.25
2023-01-03T01:47:37.860Z,1.25
2023-01-03T01:52:47.347Z,0.00
2023-01-03T01:57:50.841Z,1.00
2023-01-03T02:02:55.110Z,1.00
2023-01-03T02:08:00.394Z,1.00
2023-01-03T02:13:12.299Z,0.50
2023-01-03T02:18:29.296Z,1.00
2023-01-03T02:24:11.557Z,0.50
2023-01-03T02:29:34.326Z,0.00
2023-01-03T02:34:50.808Z,1.75
2023-01-03T02:40:01.022Z,1.00
2023-01-03T02:45:10.464Z,1.50
2023-01-03T02:50:15.518Z,0.00
2023-01-03T02:55:24.082Z,0.00
2023-01-03T03:00:31.637Z,1.25
2023-01-03T03:05:48.715Z,0.00
2023-01-03T03:11:11.826Z,0.00
2023-01-03T03:16:41.562Z,0.00
2023-01-03T03:22:03.050Z,0.00
2023-01-03T03:27:28.144Z,1.25
2023-01-03T03:32:35.013Z,0.00
2023-01-03T03:37:41.919Z,0.00
2023-01-03T03:43:08.290Z,0.00
2023-01-03T03:48:19.207Z,0.00
2023-01-03T03:53:28.161Z,0.00
2023-01-03T03:58:37.608Z,0.00
2023-01-03T04:03:41.984Z,0.00
2023-01-03T04:08:48.298Z,0.00
2023-01-03T04:13:51.178Z,1.00
2023-01-03T04:18:53.964Z,0.75
2023-01-03T04:23:58.023Z,0.00
2023-01-03T04:29:00.779Z,0.00
2023-01-03T04:34:03.594Z,0.00
2023-01-03T04:39:07.813Z,0.75
2023-01-03T04:44:10.937Z,0.25
2023-01-03T04:49:13.665Z,0.00
2023-01-03T04:54:17.765Z,0.75
2023-01-03T04:59:20.502Z,0.00
2023-01-03T05:04:23.373Z,0.00
2023-01-03T05:09:27.791Z,0.00
2023-01-03T05:14:30.735Z,0.75
2023-01-03T05:19:33.544Z,0.00
2023-01-03T05:24:51.576Z,0.00
2023-01-03T05:29:56.194Z,0.00
2023-01-03T05:34:58.931Z,0.00
2023-01-03T05:40:03.140Z,0.00
2023-01-03T05:45:06.816Z,0.00
2023-01-03T05:50:10.116Z,0.00
2023-01-03T05:55:14.275Z,1.00
2023-01-03T06:00:17.596Z,0.00
2023-01-03T06:05:20.389Z,0.25
2023-01-03T06:10:24.597Z,0.00
2023-01-03T06:15:27.512Z,0.25
2023-01-03T06:20:31.017Z,0.00
2023-01-03T06:25:35.154Z,1.00
2023-01-03T06:30:37.958Z,0.00
2023-01-03T06:35:40.960Z,0.00
2023-01-03T06:40:49.796Z,0.00
2023-01-03T06:46:12.129Z,0.25
2023-01-03T06:51:35.704Z,0.00
2023-01-03T06:56:39.848Z,0.00
2023-01-03T07:01:42.697Z,0.00
2023-01-03T07:06:45.777Z,2.50
2023-01-03T07:11:49.888Z,0.75
2023-01-03T07:16:52.607Z,0.00
2023-01-03T07:21:55.339Z,0.00
2023-01-03T07:26:59.461Z,0.00
2023-01-03T07:32:02.999Z,0.00
2023-01-03T07:37:05.964Z,0.00
2023-01-03T07:42:27.748Z,0.00
2023-01-03T07:47:30.857Z,0.00
2023-01-03T07:52:33.825Z,0.00
2023-01-03T07:57:38.193Z,0.00
2023-01-03T08:02:41.096Z,0.00
2023-01-03T08:07:43.966Z,0.75
2023-01-03T08:13:05.380Z,0.00
2023-01-03T08:18:08.188Z,0.00
2023-01-03T08:23:11.425Z,5.25
2023-01-03T08:28:15.607Z,5.25
2023-01-03T08:33:20.370Z,2.50
2023-01-03T08:38:27.900Z,3.50
2023-01-03T08:43:36.524Z,3.00
2023-01-03T08:48:39.535Z,2.00
2023-01-03T08:53:42.296Z,2.00
2023-01-03T08:58:46.607Z,2.00
2023-01-03T09:03:49.642Z,2.50
2023-01-03T09:08:52.754Z,2.00
2023-01-03T09:13:57.534Z,1.25
2023-01-03T09:19:02.516Z,1.50
2023-01-03T09:24:05.886Z,1.00
2023-01-03T09:29:10.072Z,2.00
2023-01-03T09:34:12.943Z,1.00
2023-01-03T09:39:16.539Z,1.00
2023-01-03T09:44:20.684Z,0.00
2023-01-03T09:49:23.529Z,1.00
2023-01-03T09:54:48.059Z,1.50
2023-01-03T10:00:09.807Z,1.00
2023-01-03T10:05:37.398Z,1.00
2023-01-03T10:10:49.472Z,1.50
2023-01-03T10:16:01.750Z,1.25
2023-01-03T10:21:08.800Z,1.00
2023-01-03T10:26:13.369Z,0.00
2023-01-03T10:31:31.827Z,1.00
2023-01-03T10:36:34.666Z,25.50
2023-01-03T10:41:43.281Z,33.50
2023-01-03T10:46:53.592Z,53.20
2023-01-03T10:51:59.991Z,39.40
2023-01-03T10:57:02.876Z,42.40
2023-01-03T11:02:17.534Z,40.00
2023-01-03T11:07:20.518Z,37.40
2023-01-03T11:12:29.621Z,30.00
2023-01-03T11:17:33.786Z,29.75
2023-01-03T11:22:42.854Z,27.25
2023-01-03T11:28:06.857Z,23.50
2023-01-03T11:33:34.404Z,16.50
2023-01-03T11:38:53.618Z,15.25
2023-01-03T11:44:25.125Z,12.25
2023-01-03T11:49:42.911Z,8.50
2023-01-03T11:55:14.358Z,8.75
2023-01-03T12:00:27.483Z,4.75
2023-01-03T12:05:57.398Z,2.00
2023-01-03T12:11:06.619Z,3.00
2023-01-03T12:16:13.518Z,2.25
2023-01-03T12:21:22.850Z,1.00
2023-01-03T12:26:27.436Z,2.00
2023-01-03T12:31:36.982Z,3.50
2023-01-03T12:36:48.364Z,3.75
2023-01-03T12:42:01.200Z,2.75
2023-01-03T12:47:06.859Z,1.00
2023-01-03T12:52:17.230Z,1.50
2023-01-03T12:57:39.668Z,2.25
2023-01-03T13:02:49.880Z,3.25
2023-01-03T13:08:04.944Z,1.00
2023-01-03T13:13:08.529Z,2.75
2023-01-03T13:18:29.736Z,2.00
2023-01-03T13:23:36.809Z,2.00
2023-01-03T13:28:41.128Z,5.50
2023-01-03T13:33:55.812Z,12.75
2023-01-03T13:39:01.674Z,17.50
2023-01-03T13:44:10.086Z,20.50
2023-01-03T13:49:19.536Z,19.75
2023-01-03T13:54:56.012Z,27.75
2023-01-03T14:00:01.153Z,25.50
2023-01-03T14:05:29.694Z,27.00
2023-01-03T14:11:00.529Z,7.00
2023-01-03T14:16:26.678Z,8.25
2023-01-03T14:21:43.696Z,8.00
2023-01-03T14:26:48.270Z,13.25
2023-01-03T14:31:55.761Z,11.00
2023-01-03T14:37:04.761Z,10.25
2023-01-03T14:42:16.596Z,11.50
2023-01-03T14:47:19.817Z,10.25
2023-01-03T14:52:30.217Z,9.00
2023-01-03T14:57:39.253Z,8.50
2023-01-03T15:02:42.519Z,7.25
2023-01-03T15:07:45.551Z,6.50
2023-01-03T15:12:51.435Z,6.00
2023-01-03T15:17:59.835Z,6.25
2023-01-03T15:23:03.382Z,7.25
2023-01-03T15:28:21.256Z,5.00
2023-01-03T15:33:33.088Z,5.50
2023-01-03T15:38:38.667Z,6.25
2023-01-03T15:43:43.225Z,7.75
2023-01-03T15:48:54.485Z,6.75
2023-01-03T15:53:57.277Z,7.50
2023-01-03T15:59:06.726Z,5.00
2023-01-03T16:04:11.136Z,5.75
2023-01-03T16:09:14.227Z,5.00
2023-01-03T16:14:22.225Z,3.50
2023-01-03T16:19:27.911Z,6.50
2023-01-03T16:24:32.817Z,5.50
2023-01-03T16:29:37.219Z,4.50
2023-01-03T16:34:40.009Z,6.00
2023-01-03T16:39:48.009Z,3.50
2023-01-03T16:44:52.959Z,4.00
2023-01-03T16:50:00.695Z,3.25
2023-01-03T16:55:07.248Z,5.00
2023-01-03T17:00:19.400Z,4.50
2023-01-03T17:05:23.280Z,3.00
2023-01-03T17:10:29.913Z,4.00
2023-01-03T17:15:34.094Z,4.00
2023-01-03T17:20:36.824Z,4.25
2023-01-03T17:25:41.513Z,4.00
2023-01-03T17:30:45.744Z,5.00
2023-01-03T17:35:48.801Z,4.25
2023-01-03T17:40:55.318Z,7.00
2023-01-03T17:46:23.481Z,3.00
2023-01-03T17:51:26.923Z,3.00
2023-01-03T17:56:31.149Z,5.00
2023-01-03T18:01:35.427Z,3.25
2023-01-03T18:06:39.533Z,3.50
2023-01-03T18:11:42.954Z,5.50
2023-01-03T18:16:53.169Z,4.75
2023-01-03T18:21:58.488Z,6.25
2023-01-03T18:27:01.356Z,2.50
2023-01-03T18:32:24.864Z,4.00
2023-01-03T18:37:33.247Z,3.00
2023-01-03T18:42:53.745Z,3.50
2023-01-03T18:47:57.995Z,4.00
2023-01-03T18:53:04.189Z,4.25
2023-01-03T18:58:15.118Z,3.50
2023-01-03T19:03:24.112Z,6.25
2023-01-03T19:08:30.414Z,2.67
2023-01-03T19:13:49.952Z,2.50
2023-01-03T19:18:55.450Z,4.00
2023-01-03T19:24:02.515Z,2.75
2023-01-03T19:29:08.252Z,3.25
2023-01-03T19:34:20.468Z,3.50
2023-01-03T19:39:25.888Z,6.00
2023-01-03T19:44:29.565Z,4.50
2023-01-03T19:49:33.761Z,2.50
2023-01-03T19:54:36.589Z,4.00
2023-01-03T19:59:39.945Z,2.75
2023-01-03T20:04:44.956Z,4.50
2023-01-03T20:09:47.924Z,4.00
2023-01-03T20:14:52.232Z,3.50
2023-01-03T20:19:56.400Z,5.25
2023-01-03T20:24:59.252Z,2.25
2023-01-03T20:30:02.017Z,3.00
2023-01-03T20:35:35.498Z,1.75
2023-01-03T20:40:30.122Z,3.00
2023-01-03T20:45:33.745Z,3.25
2023-01-03T20:50:38.071Z,3.50
2023-01-03T20:55:40.875Z,3.50
2023-01-03T21:00:44.035Z,2.00
2023-01-03T21:05:48.195Z,4.00
2023-01-03T21:10:53.646Z,2.25
2023-01-03T21:15:56.756Z,2.00
2023-01-03T21:21:05.981Z,1.50
2023-01-03T21:26:08.758Z,3.25
2023-01-03T21:31:18.345Z,2.50
2023-01-03T21:36:25.836Z,3.00
2023-01-03T21:41:31.137Z,3.00
2023-01-03T21:46:33.911Z,1.25
2023-01-03T21:51:39.308Z,3.00
2023-01-03T21:56:46.844Z,1.50
2023-01-03T22:02:15.700Z,2.00
2023-01-03T22:07:19.989Z,2.50
2023-01-03T22:12:23.953Z,2.75
2023-01-03T22:17:26.735Z,3.25
2023-01-03T22:22:31.202Z,2.00
2023-01-03T22:27:34.001Z,3.50
2023-01-03T22:32:36.762Z,1.25
2023-01-03T22:37:41.791Z,3.00
2023-01-03T22:42:45.014Z,1.75
2023-01-03T22:47:47.889Z,2.75
2023-01-03T22:52:52.008Z,1.50
2023-01-03T22:57:54.834Z,1.50
2023-01-03T23:02:57.675Z,1.50
2023-01-03T23:08:02.048Z,1.00
2023-01-03T23:13:04.823Z,2.50
2023-01-03T23:18:07.568Z,1.75
2023-01-03T23:23:11.720Z,2.75
2023-01-03T23:28:14.491Z,1.75
2023-01-03T23:33:17.382Z,4.00
2023-01-03T23:38:21.604Z,1.75
2023-01-03T23:43:24.393Z,1.00
2023-01-03T23:48:27.236Z,1.75
2023-01-03T23:53:31.575Z,2.50
2023-01-03T23:58:34.895Z,2.00
